createdAt,value
2023-01-10T00:01:46.024Z,100.00
2023-01-10T00:04:14.132Z,100.00
2023-01-10T00:06:42.159Z,100.00
2023-01-10T00:09:11.327Z,100.00
2023-01-10T00:11:58.011Z,100.00
2023-01-10T00:14:28.735Z,100.00
2023-01-10T00:16:56.922Z,100.00
2023-01-10T00:19:24.895Z,100.00
2023-01-10T00:21:55.056Z,100.00
2023-01-10T00:24:23.620Z,100.00
2023-01-10T00:26:53.087Z,100.00
2023-01-10T00:29:22.340Z,100.00
2023-01-10T00:31:50.334Z,100.00
2023-01-10T00:34:18.533Z,100.00
2023-01-10T00:36:48.011Z,100.00
2023-01-10T00:39:16.467Z,100.00
2023-01-10T00:42:01.891Z,100.00
2023-01-10T00:44:30.981Z,100.00
2023-01-10T00:46:58.924Z,100.00
2023-01-10T00:49:26.964Z,100.00
2023-01-10T00:52:00.233Z,100.00
2023-01-10T00:54:28.310Z,100.00
2023-01-10T00:56:56.529Z,100.00
2023-01-10T00:59:25.173Z,100.00
2023-01-10T01:01:54.676Z,100.00
2023-01-10T01:04:24.931Z,100.00
2023-01-10T01:06:52.828Z,100.00
2023-01-10T01:09:23.270Z,100.00
2023-01-10T01:11:51.263Z,100.00
2023-01-10T01:14:21.596Z,100.00
2023-01-10T01:16:49.632Z,100.00
2023-01-10T01:19:19.297Z,100.00
2023-01-10T01:21:50.207Z,100.00
2023-01-10T01:24:18.190Z,100.00
2023-01-10T01:26:46.133Z,100.00
2023-01-10T01:29:14.104Z,100.00
2023-01-10T01:31:41.988Z,100.00
2023-01-10T01:34:09.942Z,100.00
2023-01-10T01:36:39.259Z,100.00
2023-01-10T01:39:07.416Z,100.00
2023-01-10T01:41:52.487Z,100.00
2023-01-10T01:44:21.183Z,100.00
2023-01-10T01:46:56.293Z,100.00
2023-01-10T01:49:25.948Z,100.00
2023-01-10T01:51:59.814Z,100.00
2023-01-10T01:54:30.396Z,100.00
2023-01-10T01:57:02.636Z,100.00
2023-01-10T01:59:33.950Z,100.00
2023-01-10T02:02:06.520Z,100.00
2023-01-10T02:04:42.565Z,100.00
2023-01-10T02:07:13.880Z,100.00
2023-01-10T02:09:46.833Z,100.00
2023-01-10T02:12:16.670Z,100.00
2023-01-10T02:14:46.527Z,100.00
2023-01-10T02:17:14.920Z,100.00
2023-01-10T02:19:53.015Z,100.00
2023-01-10T02:22:54.003Z,100.00
2023-01-10T02:25:42.885Z,100.00
2023-01-10T02:28:40.988Z,100.00
2023-01-10T02:31:23.462Z,100.00
2023-01-10T02:33:59.424Z,100.00
2023-01-10T02:36:39.608Z,100.00
2023-01-10T02:39:18.223Z,100.00
2023-01-10T02:41:52.900Z,100.00
2023-01-10T02:44:25.891Z,100.00
2023-01-10T02:46:53.874Z,100.00
2023-01-10T02:49:23.171Z,100.00
2023-01-10T02:51:51.207Z,100.00
2023-01-10T02:54:22.630Z,100.00
2023-01-10T02:57:14.049Z,100.00
2023-01-10T03:00:18.435Z,100.00
2023-01-10T03:03:01.264Z,100.00
2023-01-10T03:05:56.188Z,100.00
2023-01-10T03:08:31.527Z,100.00
2023-01-10T03:11:01.638Z,100.00
2023-01-10T03:13:36.144Z,100.00
2023-01-10T03:16:07.478Z,100.00
2023-01-10T03:18:42.003Z,100.00
2023-01-10T03:21:12.791Z,100.00
2023-01-10T03:23:42.030Z,100.00
2023-01-10T03:26:11.386Z,100.00
2023-01-10T03:28:47.134Z,100.00
2023-01-10T03:31:20.019Z,100.00
2023-01-10T03:33:49.056Z,100.00
2023-01-10T03:36:28.184Z,100.00
2023-01-10T03:38:58.363Z,100.00
2023-01-10T03:41:35.915Z,100.00
2023-01-10T03:44:31.760Z,100.00
2023-01-10T03:47:01.675Z,100.00
2023-01-10T03:49:31.036Z,100.00
2023-01-10T03:52:01.871Z,100.00
2023-01-10T03:54:30.276Z,100.00
2023-01-10T03:56:58.307Z,100.00
2023-01-10T03:59:28.454Z,100.00
2023-01-10T04:01:56.792Z,100.00
2023-01-10T04:04:24.922Z,100.00
2023-01-10T04:06:53.018Z,100.00
2023-01-10T04:09:22.462Z,100.00
2023-01-10T04:11:50.559Z,100.00
2023-01-10T04:14:18.485Z,100.00
2023-01-10T04:16:46.627Z,100.00
2023-01-10T04:19:14.595Z,100.00
2023-01-10T04:21:45.594Z,100.00
2023-01-10T04:24:13.548Z,100.00
2023-01-10T04:26:42.939Z,100.00
2023-01-10T04:29:10.880Z,100.00
2023-01-10T04:31:40.125Z,100.00
2023-01-10T04:34:08.210Z,100.00
2023-01-10T04:36:36.590Z,100.00
2023-01-10T04:39:04.968Z,100.00
2023-01-10T04:41:32.958Z,100.00
2023-01-10T04:44:02.413Z,100.00
2023-01-10T04:46:30.540Z,100.00
2023-01-10T04:48:59.131Z,100.00
2023-01-10T04:51:27.397Z,100.00
2023-01-10T04:53:55.874Z,100.00
2023-01-10T04:56:24.591Z,100.00
2023-01-10T04:58:54.079Z,100.00
2023-01-10T05:01:25.853Z,100.00
2023-01-10T05:03:56.261Z,100.00
2023-01-10T05:06:25.387Z,100.00
2023-01-10T05:08:53.407Z,100.00
2023-01-10T05:11:21.343Z,100.00
2023-01-10T05:13:49.485Z,100.00
2023-01-10T05:16:17.918Z,100.00
2023-01-10T05:18:47.281Z,100.00
2023-01-10T05:21:15.593Z,100.00
2023-01-10T05:23:43.802Z,100.00
2023-01-10T05:26:13.677Z,100.00
2023-01-10T05:28:42.024Z,100.00
2023-01-10T05:31:10.960Z,100.00
2023-01-10T05:33:39.199Z,100.00
2023-01-10T05:36:09.568Z,100.00
2023-01-10T05:38:37.458Z,100.00
2023-01-10T05:41:05.698Z,100.00
2023-01-10T05:43:33.965Z,100.00
2023-01-10T05:46:02.122Z,100.00
2023-01-10T05:48:30.201Z,100.00
2023-01-10T05:50:58.156Z,100.00
2023-01-10T05:53:27.470Z,100.00
2023-01-10T05:55:57.278Z,100.00
2023-01-10T05:58:25.837Z,100.00
2023-01-10T06:00:56.903Z,100.00
2023-01-10T06:03:26.664Z,100.00
2023-01-10T06:05:54.981Z,100.00
2023-01-10T06:08:23.509Z,100.00
2023-01-10T06:10:54.131Z,100.00
2023-01-10T06:13:22.149Z,100.00
2023-01-10T06:15:50.698Z,100.00
2023-01-10T06:18:18.772Z,100.00
2023-01-10T06:20:46.903Z,100.00
2023-01-10T06:23:14.868Z,100.00
2023-01-10T06:25:43.091Z,100.00
2023-01-10T06:28:14.343Z,100.00
2023-01-10T06:30:43.357Z,100.00
2023-01-10T06:33:12.601Z,100.00
2023-01-10T06:35:40.906Z,100.00
2023-01-10T06:38:09.134Z,100.00
2023-01-10T06:40:37.058Z,100.00
2023-01-10T06:43:05.013Z,100.00
2023-01-10T06:45:34.738Z,100.00
2023-01-10T06:48:02.860Z,100.00
2023-01-10T06:50:31.838Z,100.00
2023-01-10T06:53:01.294Z,100.00
2023-01-10T06:55:30.313Z,100.00
2023-01-10T06:57:59.210Z,100.00
2023-01-10T07:00:28.659Z,100.00
2023-01-10T07:02:59.836Z,100.00
2023-01-10T07:05:29.117Z,100.00
2023-01-10T07:08:01.232Z,100.00
2023-01-10T07:10:29.399Z,100.00
2023-01-10T07:12:57.844Z,100.00
2023-01-10T07:15:26.427Z,100.00
2023-01-10T07:17:54.356Z,100.00
2023-01-10T07:20:23.588Z,100.00
2023-01-10T07:22:55.916Z,100.00
2023-01-10T07:25:23.967Z,100.00
2023-01-10T07:27:51.928Z,100.00
2023-01-10T07:30:20.037Z,100.00
2023-01-10T07:32:53.577Z,100.00
2023-01-10T07:35:23.133Z,100.00
2023-01-10T07:37:51.101Z,100.00
2023-01-10T07:40:19.427Z,100.00
2023-01-10T07:42:47.333Z,100.00
2023-01-10T07:45:15.340Z,100.00
2023-01-10T07:47:43.336Z,100.00
2023-01-10T07:50:11.906Z,100.00
2023-01-10T07:52:41.247Z,100.00
2023-01-10T07:55:10.271Z,100.00
2023-01-10T07:57:38.258Z,100.00
2023-01-10T08:00:07.063Z,100.00
2023-01-10T08:02:35.228Z,100.00
2023-01-10T08:05:03.375Z,100.00
2023-01-10T08:07:31.973Z,100.00
2023-01-10T08:10:01.253Z,100.00
2023-01-10T08:12:29.194Z,100.00
2023-01-10T08:14:57.157Z,100.00
2023-01-10T08:17:25.610Z,100.00
2023-01-10T08:19:53.575Z,100.00
2023-01-10T08:22:21.536Z,100.00
2023-01-10T08:24:49.521Z,100.00
2023-01-10T08:27:18.817Z,100.00
2023-01-10T08:29:46.855Z,100.00
2023-01-10T08:32:14.810Z,100.00
2023-01-10T08:34:42.748Z,100.00
2023-01-10T08:37:13.736Z,100.00
2023-01-10T08:39:41.670Z,100.00
2023-01-10T08:42:09.840Z,100.00
2023-01-10T08:44:39.362Z,100.00
2023-01-10T08:47:07.331Z,100.00
2023-01-10T08:49:35.355Z,100.00
2023-01-10T08:52:03.942Z,100.00
2023-01-10T08:54:32.173Z,100.00
2023-01-10T08:57:00.642Z,100.00
2023-01-10T08:59:28.597Z,100.00
2023-01-10T09:01:59.889Z,100.00
2023-01-10T09:04:32.747Z,100.00
2023-01-10T09:07:01.033Z,100.00
2023-01-10T09:09:28.903Z,100.00
2023-01-10T09:11:57.613Z,100.00
2023-01-10T09:14:25.561Z,100.00
2023-01-10T09:16:53.566Z,100.00
2023-01-10T09:19:22.913Z,100.00
2023-01-10T09:21:50.934Z,100.00
2023-01-10T09:24:19.605Z,100.00
2023-01-10T09:26:47.586Z,100.00
2023-01-10T09:29:15.570Z,100.00
2023-01-10T09:31:43.506Z,100.00
2023-01-10T09:34:11.523Z,100.00
2023-01-10T09:36:40.832Z,100.00
2023-01-10T09:39:08.806Z,100.00
2023-01-10T09:42:02.440Z,100.00
2023-01-10T09:44:43.286Z,100.00
2023-01-10T09:47:22.782Z,100.00
2023-01-10T09:50:01.469Z,100.00
2023-01-10T09:52:34.658Z,100.00
2023-01-10T09:55:20.963Z,100.00
2023-01-10T09:57:50.132Z,100.00
2023-01-10T10:00:22.282Z,100.00
2023-01-10T10:02:53.738Z,100.00
2023-01-10T10:05:24.475Z,100.00
2023-01-10T10:07:56.918Z,100.00
2023-01-10T10:10:28.551Z,100.00
2023-01-10T10:13:14.069Z,100.00
2023-01-10T10:15:50.964Z,100.00
2023-01-10T10:18:30.751Z,100.00
2023-01-10T10:21:05.862Z,100.00
2023-01-10T10:23:50.121Z,100.00
2023-01-10T10:26:28.740Z,100.00
2023-01-10T10:29:21.405Z,100.00
2023-01-10T10:32:04.886Z,100.00
2023-01-10T10:34:37.999Z,100.00
2023-01-10T10:37:13.207Z,100.00
2023-01-10T10:39:46.622Z,100.00
2023-01-10T10:42:18.005Z,100.00
2023-01-10T10:44:52.657Z,100.00
2023-01-10T10:47:22.617Z,100.00
2023-01-10T10:49:55.796Z,100.00
2023-01-10T10:52:26.524Z,100.00
2023-01-10T10:54:56.432Z,100.00
2023-01-10T10:57:27.658Z,100.00
2023-01-10T10:59:57.216Z,100.00
2023-01-10T11:02:27.994Z,100.00
2023-01-10T11:04:59.683Z,100.00
2023-01-10T11:07:30.819Z,100.00
2023-01-10T11:10:09.399Z,100.00
2023-01-10T11:12:45.290Z,100.00
2023-01-10T11:15:13.357Z,100.00
2023-01-10T11:17:41.985Z,100.00
2023-01-10T11:20:17.180Z,100.00
2023-01-10T11:22:49.499Z,100.00
2023-01-10T11:25:21.605Z,100.00
2023-01-10T11:27:52.407Z,100.00
2023-01-10T11:30:23.755Z,100.00
2023-01-10T11:32:55.046Z,98.24
2023-01-10T11:35:26.490Z,98.64
2023-01-10T11:38:02.344Z,98.91
2023-01-10T11:40:32.471Z,98.84
2023-01-10T11:43:01.892Z,99.90
2023-01-10T11:45:36.120Z,99.66
2023-01-10T11:48:09.545Z,99.99
2023-01-10T11:50:40.973Z,100.00
2023-01-10T11:53:32.314Z,100.00
2023-01-10T11:56:02.701Z,100.00
2023-01-10T11:58:33.120Z,100.00
2023-01-10T12:01:01.586Z,100.00
2023-01-10T12:03:33.198Z,100.00
2023-01-10T12:06:04.326Z,100.00
2023-01-10T12:08:33.597Z,100.00
2023-01-10T12:11:06.261Z,100.00
2023-01-10T12:13:47.373Z,99.57
2023-01-10T12:16:22.215Z,99.87
2023-01-10T12:18:50.840Z,99.50
2023-01-10T12:21:26.703Z,99.10
2023-01-10T12:23:58.702Z,98.99
2023-01-10T12:26:31.248Z,99.90
2023-01-10T12:29:05.549Z,100.00
2023-01-10T12:31:36.285Z,100.00
2023-01-10T12:34:11.743Z,100.00
2023-01-10T12:36:47.006Z,100.00
2023-01-10T12:39:18.597Z,100.00
2023-01-10T12:42:35.315Z,100.00
2023-01-10T12:45:10.113Z,100.00
2023-01-10T12:47:50.152Z,100.00
2023-01-10T12:50:25.120Z,100.00
2023-01-10T12:52:56.440Z,100.00
2023-01-10T12:55:27.559Z,100.00
2023-01-10T12:58:01.325Z,100.00
2023-01-10T13:00:40.569Z,100.00
2023-01-10T13:03:20.555Z,100.00
2023-01-10T13:05:50.749Z,100.00
2023-01-10T13:08:22.458Z,100.00
2023-01-10T13:10:53.682Z,100.00
2023-01-10T13:13:33.235Z,100.00
2023-01-10T13:16:22.430Z,100.00
2023-01-10T13:19:02.173Z,100.00
2023-01-10T13:21:30.787Z,100.00
2023-01-10T13:24:00.953Z,100.00
2023-01-10T13:26:46.639Z,100.00
2023-01-10T13:29:20.745Z,100.00
2023-01-10T13:31:57.202Z,100.00
2023-01-10T13:34:27.851Z,100.00
2023-01-10T13:36:58.776Z,100.00
2023-01-10T13:39:32.555Z,100.00
2023-01-10T13:42:42.823Z,100.00
2023-01-10T13:45:38.568Z,100.00
2023-01-10T13:48:25.131Z,100.00
2023-01-10T13:51:00.343Z,100.00
2023-01-10T13:53:46.907Z,100.00
2023-01-10T13:56:36.739Z,100.00
2023-01-10T13:59:40.328Z,100.00
2023-01-10T14:02:30.211Z,100.00
2023-01-10T14:05:00.479Z,100.00
2023-01-10T14:07:31.480Z,100.00
2023-01-10T14:10:05.248Z,100.00
2023-01-10T14:12:39.695Z,100.00
2023-01-10T14:15:21.375Z,100.00
2023-01-10T14:17:59.150Z,100.00
2023-01-10T14:20:28.256Z,100.00
2023-01-10T14:23:05.658Z,100.00
2023-01-10T14:25:36.058Z,100.00
2023-01-10T14:28:05.276Z,100.00
2023-01-10T14:30:36.238Z,100.00
2023-01-10T14:33:13.427Z,100.00
2023-01-10T14:35:46.139Z,100.00
2023-01-10T14:38:21.021Z,100.00
2023-01-10T14:40:52.216Z,100.00
2023-01-10T14:43:24.088Z,100.00
2023-01-10T14:45:59.426Z,100.00
2023-01-10T14:48:32.443Z,100.00
2023-01-10T14:51:21.743Z,100.00
2023-01-10T14:53:57.191Z,100.00
2023-01-10T14:56:28.075Z,100.00
2023-01-10T14:58:56.121Z,100.00
2023-01-10T15:01:27.159Z,100.00
2023-01-10T15:03:58.087Z,100.00
2023-01-10T15:06:26.426Z,100.00
2023-01-10T15:09:03.738Z,100.00
2023-01-10T15:11:33.047Z,100.00
2023-01-10T15:14:07.524Z,100.00
2023-01-10T15:16:37.132Z,100.00
2023-01-10T15:19:06.695Z,100.00
2023-01-10T15:21:34.732Z,100.00
2023-01-10T15:24:02.751Z,100.00
2023-01-10T15:26:33.502Z,100.00
2023-01-10T15:29:11.230Z,100.00
2023-01-10T15:31:40.612Z,100.00
2023-01-10T15:34:12.905Z,100.00
2023-01-10T15:36:45.316Z,100.00
2023-01-10T15:39:20.744Z,100.00
2023-01-10T15:41:49.200Z,100.00
2023-01-10T15:44:24.956Z,100.00
2023-01-10T15:46:57.199Z,100.00
2023-01-10T15:49:26.827Z,100.00
2023-01-10T15:51:55.120Z,100.00
2023-01-10T15:54:33.577Z,100.00
2023-01-10T15:57:23.785Z,100.00
2023-01-10T15:59:52.342Z,100.00
2023-01-10T16:02:24.662Z,100.00
2023-01-10T16:04:56.661Z,100.00
2023-01-10T16:07:28.039Z,100.00
2023-01-10T16:10:00.060Z,100.00
2023-01-10T16:12:51.627Z,100.00
2023-01-10T16:15:22.484Z,100.00
2023-01-10T16:17:51.420Z,100.00
2023-01-10T16:20:22.652Z,100.00
2023-01-10T16:22:51.345Z,100.00
2023-01-10T16:25:21.835Z,100.00
2023-01-10T16:27:49.800Z,100.00
2023-01-10T16:30:28.082Z,100.00
2023-01-10T16:32:57.340Z,100.00
2023-01-10T16:35:27.313Z,100.00
2023-01-10T16:37:57.306Z,100.00
2023-01-10T16:40:28.489Z,100.00
2023-01-10T16:43:14.528Z,100.00
2023-01-10T16:45:42.632Z,100.00
2023-01-10T16:48:10.857Z,100.00
2023-01-10T16:50:40.220Z,100.00
2023-01-10T16:53:08.459Z,100.00
2023-01-10T16:55:42.050Z,100.00
2023-01-10T16:58:10.837Z,100.00
2023-01-10T17:00:40.073Z,100.00
2023-01-10T17:03:13.170Z,100.00
2023-01-10T17:05:42.793Z,100.00
2023-01-10T17:08:15.290Z,100.00
2023-01-10T17:10:43.507Z,100.00
2023-01-10T17:13:13.706Z,100.00
2023-01-10T17:15:42.374Z,100.00
2023-01-10T17:18:12.223Z,100.00
2023-01-10T17:20:40.261Z,100.00
2023-01-10T17:23:11.612Z,100.00
2023-01-10T17:25:39.883Z,100.00
2023-01-10T17:28:08.109Z,100.00
2023-01-10T17:30:36.200Z,100.00
2023-01-10T17:33:05.467Z,100.00
2023-01-10T17:35:33.477Z,100.00
2023-01-10T17:38:02.045Z,100.00
2023-01-10T17:40:31.658Z,100.00
2023-01-10T17:42:59.685Z,100.00
2023-01-10T17:45:27.811Z,100.00
2023-01-10T17:47:55.860Z,100.00
2023-01-10T17:50:23.858Z,100.00
2023-01-10T17:52:51.880Z,100.00
2023-01-10T17:55:20.032Z,100.00
2023-01-10T17:57:49.464Z,100.00
2023-01-10T18:00:18.331Z,100.00
2023-01-10T18:02:46.314Z,100.00
2023-01-10T18:05:14.405Z,100.00
2023-01-10T18:07:42.436Z,100.00
2023-01-10T18:10:12.677Z,100.00
2023-01-10T18:12:40.705Z,100.00
2023-01-10T18:15:12.402Z,100.00
2023-01-10T18:17:40.461Z,100.00
2023-01-10T18:20:10.060Z,100.00
2023-01-10T18:22:56.804Z,100.00
2023-01-10T18:25:25.232Z,100.00
2023-01-10T18:27:54.192Z,100.00
2023-01-10T18:30:24.356Z,100.00
2023-01-10T18:32:53.582Z,100.00
2023-01-10T18:35:22.467Z,100.00
2023-01-10T18:37:50.637Z,100.00
2023-01-10T18:40:19.177Z,100.00
2023-01-10T18:42:51.386Z,100.00
2023-01-10T18:45:19.337Z,100.00
2023-01-10T18:47:55.427Z,100.00
2023-01-10T18:50:23.719Z,100.00
2023-01-10T18:52:51.785Z,100.00
2023-01-10T18:55:19.933Z,100.00
2023-01-10T18:57:48.315Z,100.00
2023-01-10T19:00:17.244Z,100.00
2023-01-10T19:02:46.820Z,100.00
2023-01-10T19:05:16.419Z,100.00
2023-01-10T19:07:44.421Z,100.00
2023-01-10T19:10:12.851Z,100.00
2023-01-10T19:12:42.405Z,100.00
2023-01-10T19:15:11.552Z,100.00
2023-01-10T19:17:39.715Z,100.00
2023-01-10T19:20:09.207Z,100.00
2023-01-10T19:22:38.603Z,100.00
2023-01-10T19:25:07.083Z,100.00
2023-01-10T19:27:35.072Z,100.00
2023-01-10T19:30:03.202Z,100.00
2023-01-10T19:32:31.230Z,100.00
2023-01-10T19:34:59.233Z,100.00
2023-01-10T19:37:27.259Z,100.00
2023-01-10T19:39:56.612Z,100.00
2023-01-10T19:42:26.129Z,100.00
2023-01-10T19:44:54.363Z,100.00
2023-01-10T19:47:22.362Z,100.00
2023-01-10T19:49:51.215Z,100.00
2023-01-10T19:52:19.245Z,100.00
2023-01-10T19:54:48.784Z,100.00
2023-01-10T19:57:18.104Z,100.00
2023-01-10T19:59:49.127Z,100.00
2023-01-10T20:02:19.244Z,100.00
2023-01-10T20:04:47.557Z,100.00
2023-01-10T20:07:17.431Z,100.00
2023-01-10T20:09:46.645Z,100.00
2023-01-10T20:12:15.299Z,100.00
2023-01-10T20:14:44.694Z,100.00
2023-01-10T20:17:12.767Z,100.00
2023-01-10T20:19:41.210Z,100.00
2023-01-10T20:22:09.187Z,100.00
2023-01-10T20:24:37.686Z,100.00
2023-01-10T20:27:09.323Z,100.00
2023-01-10T20:29:38.920Z,100.00
2023-01-10T20:32:08.367Z,100.00
2023-01-10T20:34:36.305Z,100.00
2023-01-10T20:37:04.317Z,100.00
2023-01-10T20:39:33.012Z,100.00
2023-01-10T20:42:01.105Z,100.00
2023-01-10T20:44:31.101Z,100.00
2023-01-10T20:46:59.104Z,100.00
2023-01-10T20:49:28.490Z,100.00
2023-01-10T20:51:56.439Z,100.00
2023-01-10T20:54:25.518Z,100.00
2023-01-10T20:56:53.531Z,100.00
2023-01-10T20:59:21.505Z,100.00
2023-01-10T21:01:49.940Z,100.00
2023-01-10T21:04:17.965Z,100.00
2023-01-10T21:06:47.419Z,100.00
2023-01-10T21:09:16.713Z,100.00
2023-01-10T21:12:00.012Z,100.00
2023-01-10T21:14:32.797Z,100.00
2023-01-10T21:17:00.930Z,100.00
2023-01-10T21:19:28.999Z,100.00
2023-01-10T21:21:58.482Z,100.00
2023-01-10T21:24:26.814Z,100.00
2023-01-10T21:26:54.783Z,100.00
2023-01-10T21:29:22.754Z,100.00
2023-01-10T21:31:52.738Z,100.00
2023-01-10T21:34:21.548Z,100.00
2023-01-10T21:36:49.770Z,100.00
2023-01-10T21:39:19.284Z,100.00
2023-01-10T21:42:04.627Z,100.00
2023-01-10T21:44:32.371Z,100.00
2023-01-10T21:47:00.871Z,100.00
2023-01-10T21:49:29.084Z,100.00
2023-01-10T21:51:57.901Z,100.00
2023-01-10T21:54:27.271Z,100.00
2023-01-10T21:56:55.231Z,100.00
2023-01-10T21:59:23.293Z,100.00
2023-01-10T22:01:51.283Z,100.00
2023-01-10T22:04:19.251Z,100.00
2023-01-10T22:06:47.398Z,100.00
2023-01-10T22:09:15.443Z,100.00
2023-01-10T22:11:44.818Z,100.00
2023-01-10T22:14:13.039Z,100.00
2023-01-10T22:16:41.077Z,100.00
2023-01-10T22:19:09.098Z,100.00
2023-01-10T22:21:37.123Z,100.00
2023-01-10T22:24:05.635Z,100.00
2023-01-10T22:26:33.685Z,100.00
2023-01-10T22:29:02.981Z,100.00
2023-01-10T22:31:31.067Z,100.00
2023-01-10T22:33:59.113Z,100.00
2023-01-10T22:36:27.070Z,100.00
2023-01-10T22:38:55.086Z,100.00
2023-01-10T22:41:27.001Z,100.00
2023-01-10T22:43:56.170Z,100.00
2023-01-10T22:46:25.720Z,100.00
2023-01-10T22:48:54.449Z,100.00
2023-01-10T22:51:24.117Z,100.00
2023-01-10T22:53:53.269Z,100.00
2023-01-10T22:56:21.748Z,100.00
2023-01-10T22:58:49.705Z,100.00
2023-01-10T23:01:18.984Z,100.00
2023-01-10T23:03:48.833Z,100.00
2023-01-10T23:06:17.627Z,100.00
2023-01-10T23:08:46.141Z,100.00
2023-01-10T23:11:16.485Z,100.00
2023-01-10T23:13:45.255Z,100.00
2023-01-10T23:16:15.159Z,100.00
2023-01-10T23:18:43.841Z,100.00
2023-01-10T23:21:13.127Z,100.00
2023-01-10T23:23:41.094Z,100.00
2023-01-10T23:26:11.689Z,100.00
2023-01-10T23:28:42.629Z,100.00
2023-01-10T23:31:10.524Z,100.00
2023-01-10T23:33:38.590Z,100.00
2023-01-10T23:36:07.311Z,100.00
2023-01-10T23:38:38.534Z,100.00
2023-01-10T23:41:06.976Z,100.00
2023-01-10T23:43:34.925Z,100.00
2023-01-10T23:46:02.995Z,100.00
2023-01-10T23:48:31.178Z,100.00
2023-01-10T23:50:59.077Z,100.00
2023-01-10T23:53:27.127Z,100.00
2023-01-10T23:55:57.017Z,100.00
2023-01-10T23:58:24.999Z,100.00
